• pl
  • eng

Awiacja
WIADOMOŚCI
ostatnia aktualizacja: 17.04.2020 19:04
Szanowni Państwo,

mając na uwadze sytuację związaną z pandemią wywołaną koronawirusem SARS-Cov-2 oraz w trosce o bezpieczeństwo Państwa oraz naszych pracowników, IMGW-PIB podjął decyzję o przeniesieniu kolejnej edycji Szkoły Meteorologii Lotniczej na przyszły rok. W tej chwili podanie dokładnego terminu szkoły nie jest możliwe, ale jak tylko będzie znany zostanie ogłoszony na naszych stronach internetowych, do których śledzenia serdecznie zapraszamy.

Kliknij na pogrubioną czerwoną nazwę, aby odkodować depeszę. 19:01 10.07.2020
  • WIND
  • SIGNIFICANT EURO
  • SIGNIFICANT
  • SIGMET
  • AIRMET
  • TAF FC
  • TAF FT
  • METAR GG30
  • METAR GG00


METAR EPBY 101700Z 16003KT 150V210 CAVOK 21/19 Q1006=

METAR EPGD 101700Z 16011KT 9999 FEW005 18/17 Q1005 =

METAR EPKK 101700Z 22010KT CAVOK 29/14 Q1011 =

METAR EPKT 101700Z 20013KT 170V230 CAVOK 29/14 Q1010 =

METAR EPLB 101700Z 19008KT 150V210 CAVOK 28/18 Q1012 =

METAR EPLL 101700Z 23008G20KT 130V290 9999 FEW033 SCT050CB 28/14
Q1007 =

METAR EPMO 101700Z 16008KT 140V200 CAVOK 27/18 Q1007 =

METAR EPPO 101700Z 31010KT CAVOK 25/18 Q1007 =

METAR EPRA 101700Z NIL=

METAR EPRZ 101700Z 19016KT CAVOK 28/15 Q1013 =

METAR EPSC 101700Z 28017KT 9999 FEW010 BKN013 BKN016CB 17/14 Q1008 =

METAR EPSY 101700Z 18008KT 7000 -SHRA FEW013 SCT038CB 23/17 Q1008=

METAR EPWA 101700Z 14008KT CAVOK 26/18 Q1008 NOSIG=

METAR EPWR 101700Z 27015KT 240V300 9999 -SHRA SCT050CB 27/15 Q1009 =

METAR EPZG 101700Z 25015KT 220V280 CAVOK 25/12 Q1008 =
Awiacja.imgw.pl jest pogodowym serwisem informacyjnym
Instytutu Meteorologii i Gospodarki Wodnej Państwowego Instytutu Badawczego.
Copyright IMGW PIB 2009-2019© Wszelkie prawa zastrzeżone.